sensor_id;sensor_type;location;lat;lon;timestamp;pressure;altitude;pressure_sealevel;temperature
13570;BMP180;6856;51.460;7.158;2023-11-18T00:01:32;101209.00;;;7.90
13570;BMP180;6856;51.460;7.158;2023-11-18T00:04:10;101203.00;;;7.80
13570;BMP180;6856;51.460;7.158;2023-11-18T00:06:48;101210.00;;;7.80
13570;BMP180;6856;51.460;7.158;2023-11-18T00:09:25;101205.00;;;7.90
13570;BMP180;6856;51.460;7.158;2023-11-18T00:12:02;101202.00;;;7.90
13570;BMP180;6856;51.460;7.158;2023-11-18T00:14:40;101200.00;;;7.90
13570;BMP180;6856;51.460;7.158;2023-11-18T00:17:15;101210.00;;;7.90
13570;BMP180;6856;51.460;7.158;2023-11-18T00:19:50;101208.00;;;7.90
13570;BMP180;6856;51.460;7.158;2023-11-18T00:22:26;101206.00;;;7.90
13570;BMP180;6856;51.460;7.158;2023-11-18T00:25:00;101214.00;;;7.90
13570;BMP180;6856;51.460;7.158;2023-11-18T00:27:34;101211.00;;;7.90
13570;BMP180;6856;51.460;7.158;2023-11-18T00:30:10;101215.00;;;7.80
13570;BMP180;6856;51.460;7.158;2023-11-18T00:32:44;101189.00;;;7.90
13570;BMP180;6856;51.460;7.158;2023-11-18T00:35:19;101191.00;;;7.90
13570;BMP180;6856;51.460;7.158;2023-11-18T00:38:17;101200.00;;;7.80
13570;BMP180;6856;51.460;7.158;2023-11-18T00:40:51;101177.00;;;7.80
13570;BMP180;6856;51.460;7.158;2023-11-18T00:43:25;101165.00;;;7.80
13570;BMP180;6856;51.460;7.158;2023-11-18T00:45:59;101195.00;;;7.80
13570;BMP180;6856;51.460;7.158;2023-11-18T00:48:33;101177.00;;;7.80
13570;BMP180;6856;51.460;7.158;2023-11-18T00:51:10;101189.00;;;7.70
13570;BMP180;6856;51.460;7.158;2023-11-18T00:53:43;101176.00;;;7.70
13570;BMP180;6856;51.460;7.158;2023-11-18T00:56:17;101185.00;;;7.70
13570;BMP180;6856;51.460;7.158;2023-11-18T00:58:53;101183.00;;;7.70
13570;BMP180;6856;51.460;7.158;2023-11-18T01:01:27;101181.00;;;7.70
13570;BMP180;6856;51.460;7.158;2023-11-18T01:04:01;101178.00;;;7.70
13570;BMP180;6856;51.460;7.158;2023-11-18T01:06:37;101189.00;;;7.70
13570;BMP180;6856;51.460;7.158;2023-11-18T01:09:10;101180.00;;;7.70
13570;BMP180;6856;51.460;7.158;2023-11-18T01:11:44;101185.00;;;7.70
13570;BMP180;6856;51.460;7.158;2023-11-18T01:14:39;101193.00;;;7.70
13570;BMP180;6856;51.460;7.158;2023-11-18T01:17:14;101171.00;;;7.60
13570;BMP180;6856;51.460;7.158;2023-11-18T01:19:49;101192.00;;;7.60
13570;BMP180;6856;51.460;7.158;2023-11-18T01:22:25;101178.00;;;7.60
13570;BMP180;6856;51.460;7.158;2023-11-18T01:24:58;101190.00;;;7.60
13570;BMP180;6856;51.460;7.158;2023-11-18T01:27:32;101189.00;;;7.60
13570;BMP180;6856;51.460;7.158;2023-11-18T01:30:07;101191.00;;;7.60
13570;BMP180;6856;51.460;7.158;2023-11-18T01:32:42;101194.00;;;7.60
13570;BMP180;6856;51.460;7.158;2023-11-18T01:35:16;101204.00;;;7.60
13570;BMP180;6856;51.460;7.158;2023-11-18T01:37:52;101217.00;;;7.60
13570;BMP180;6856;51.460;7.158;2023-11-18T01:40:26;101217.00;;;7.50
13570;BMP180;6856;51.460;7.158;2023-11-18T01:43:03;101214.00;;;7.50
13570;BMP180;6856;51.460;7.158;2023-11-18T01:45:43;101211.00;;;7.50
13570;BMP180;6856;51.460;7.158;2023-11-18T01:48:18;101213.00;;;7.50
13570;BMP180;6856;51.460;7.158;2023-11-18T01:50:56;101221.00;;;7.50
13570;BMP180;6856;51.460;7.158;2023-11-18T01:53:34;101221.00;;;7.50
13570;BMP180;6856;51.460;7.158;2023-11-18T01:56:09;101222.00;;;7.50
13570;BMP180;6856;51.460;7.158;2023-11-18T01:58:45;101214.00;;;7.50
13570;BMP180;6856;51.460;7.158;2023-11-18T02:01:19;101214.00;;;7.50
13570;BMP180;6856;51.460;7.158;2023-11-18T02:03:53;101197.00;;;7.50
13570;BMP180;6856;51.460;7.158;2023-11-18T02:06:27;101202.00;;;7.50
13570;BMP180;6856;51.460;7.158;2023-11-18T02:09:03;101200.00;;;7.40
13570;BMP180;6856;51.460;7.158;2023-11-18T02:11:50;101193.00;;;7.40
13570;BMP180;6856;51.460;7.158;2023-11-18T02:14:28;101196.00;;;7.40
13570;BMP180;6856;51.460;7.158;2023-11-18T02:17:05;101194.00;;;7.40
13570;BMP180;6856;51.460;7.158;2023-11-18T02:19:43;101195.00;;;7.40
13570;BMP180;6856;51.460;7.158;2023-11-18T02:22:18;101192.00;;;7.40
13570;BMP180;6856;51.460;7.158;2023-11-18T02:24:55;101192.00;;;7.40
13570;BMP180;6856;51.460;7.158;2023-11-18T02:27:32;101194.00;;;7.40
13570;BMP180;6856;51.460;7.158;2023-11-18T02:30:09;101195.00;;;7.40
13570;BMP180;6856;51.460;7.158;2023-11-18T02:32:53;101185.00;;;7.40
13570;BMP180;6856;51.460;7.158;2023-11-18T02:35:34;101190.00;;;7.40
13570;BMP180;6856;51.460;7.158;2023-11-18T02:38:10;101195.00;;;7.40
13570;BMP180;6856;51.460;7.158;2023-11-18T02:40:45;101190.00;;;7.40
13570;BMP180;6856;51.460;7.158;2023-11-18T02:43:23;101194.00;;;7.40
13570;BMP180;6856;51.460;7.158;2023-11-18T02:45:57;101178.00;;;7.40
13570;BMP180;6856;51.460;7.158;2023-11-18T02:48:31;101177.00;;;7.40
13570;BMP180;6856;51.460;7.158;2023-11-18T02:51:05;101175.00;;;7.50
13570;BMP180;6856;51.460;7.158;2023-11-18T02:53:40;101183.00;;;7.50
13570;BMP180;6856;51.460;7.158;2023-11-18T02:56:17;101180.00;;;7.50
13570;BMP180;6856;51.460;7.158;2023-11-18T02:58:52;101185.00;;;7.50
13570;BMP180;6856;51.460;7.158;2023-11-18T03:01:26;101188.00;;;7.50
13570;BMP180;6856;51.460;7.158;2023-11-18T03:04:00;101166.00;;;7.60
13570;BMP180;6856;51.460;7.158;2023-11-18T03:06:34;101198.00;;;7.60
13570;BMP180;6856;51.460;7.158;2023-11-18T03:09:09;101188.00;;;7.60
13570;BMP180;6856;51.460;7.158;2023-11-18T03:11:42;101183.00;;;7.40
13570;BMP180;6856;51.460;7.158;2023-11-18T03:14:18;101170.00;;;7.60
13570;BMP180;6856;51.460;7.158;2023-11-18T03:16:52;101170.00;;;7.60
13570;BMP180;6856;51.460;7.158;2023-11-18T03:19:27;101164.00;;;7.60
13570;BMP180;6856;51.460;7.158;2023-11-18T03:22:01;101160.00;;;7.60
13570;BMP180;6856;51.460;7.158;2023-11-18T03:24:35;101152.00;;;7.60
13570;BMP180;6856;51.460;7.158;2023-11-18T03:27:09;101152.00;;;7.60
13570;BMP180;6856;51.460;7.158;2023-11-18T03:29:44;101149.00;;;7.60
13570;BMP180;6856;51.460;7.158;2023-11-18T03:32:18;101152.00;;;7.60
13570;BMP180;6856;51.460;7.158;2023-11-18T03:34:52;101146.00;;;7.60
13570;BMP180;6856;51.460;7.158;2023-11-18T03:37:26;101138.00;;;7.60
13570;BMP180;6856;51.460;7.158;2023-11-18T03:40:00;101138.00;;;7.70
13570;BMP180;6856;51.460;7.158;2023-11-18T03:42:33;101134.00;;;7.70
13570;BMP180;6856;51.460;7.158;2023-11-18T03:45:11;101137.00;;;7.70
13570;BMP180;6856;51.460;7.158;2023-11-18T03:47:46;101143.00;;;7.70
13570;BMP180;6856;51.460;7.158;2023-11-18T03:50:22;101135.00;;;7.70
13570;BMP180;6856;51.460;7.158;2023-11-18T03:52:56;101144.00;;;7.70
13570;BMP180;6856;51.460;7.158;2023-11-18T03:55:30;101152.00;;;7.70
13570;BMP180;6856;51.460;7.158;2023-11-18T03:58:05;101147.00;;;7.70
13570;BMP180;6856;51.460;7.158;2023-11-18T04:00:42;101151.00;;;7.70
13570;BMP180;6856;51.460;7.158;2023-11-18T04:03:16;101154.00;;;7.70
13570;BMP180;6856;51.460;7.158;2023-11-18T04:05:50;101156.00;;;7.70
13570;BMP180;6856;51.460;7.158;2023-11-18T04:08:24;101165.00;;;7.70
13570;BMP180;6856;51.460;7.158;2023-11-18T04:10:58;101155.00;;;7.80
13570;BMP180;6856;51.460;7.158;2023-11-18T04:13:32;101134.00;;;7.80
13570;BMP180;6856;51.460;7.158;2023-11-18T04:16:10;101153.00;;;7.70
13570;BMP180;6856;51.460;7.158;2023-11-18T04:18:45;101171.00;;;7.80
13570;BMP180;6856;51.460;7.158;2023-11-18T04:21:19;101164.00;;;7.80
13570;BMP180;6856;51.460;7.158;2023-11-18T04:23:53;101172.00;;;7.80
13570;BMP180;6856;51.460;7.158;2023-11-18T04:26:27;101158.00;;;7.70
13570;BMP180;6856;51.460;7.158;2023-11-18T04:29:00;101146.00;;;7.70
13570;BMP180;6856;51.460;7.158;2023-11-18T04:31:36;101136.00;;;7.70
13570;BMP180;6856;51.460;7.158;2023-11-18T04:34:10;101146.00;;;7.80
13570;BMP180;6856;51.460;7.158;2023-11-18T04:36:44;101140.00;;;7.80
13570;BMP180;6856;51.460;7.158;2023-11-18T04:39:17;101146.00;;;7.80
13570;BMP180;6856;51.460;7.158;2023-11-18T04:41:52;101124.00;;;7.70
13570;BMP180;6856;51.460;7.158;2023-11-18T04:44:28;101114.00;;;7.70
13570;BMP180;6856;51.460;7.158;2023-11-18T04:47:05;101107.00;;;7.70
13570;BMP180;6856;51.460;7.158;2023-11-18T04:49:39;101102.00;;;7.70
13570;BMP180;6856;51.460;7.158;2023-11-18T04:52:13;101095.00;;;7.70
13570;BMP180;6856;51.460;7.158;2023-11-18T04:54:48;101104.00;;;7.70
13570;BMP180;6856;51.460;7.158;2023-11-18T04:57:22;101100.00;;;7.70
13570;BMP180;6856;51.460;7.158;2023-11-18T04:59:56;101089.00;;;7.70
13570;BMP180;6856;51.460;7.158;2023-11-18T05:02:32;101066.00;;;7.70
13570;BMP180;6856;51.460;7.158;2023-11-18T05:05:07;101091.00;;;7.70
13570;BMP180;6856;51.460;7.158;2023-11-18T05:07:41;101077.00;;;7.70
13570;BMP180;6856;51.460;7.158;2023-11-18T05:10:15;101080.00;;;7.70
13570;BMP180;6856;51.460;7.158;2023-11-18T05:12:51;101076.00;;;7.70
13570;BMP180;6856;51.460;7.158;2023-11-18T05:15:28;101070.00;;;7.60
13570;BMP180;6856;51.460;7.158;2023-11-18T05:18:04;101061.00;;;7.60
13570;BMP180;6856;51.460;7.158;2023-11-18T05:20:42;101049.00;;;7.70
13570;BMP180;6856;51.460;7.158;2023-11-18T05:23:16;101053.00;;;7.60
13570;BMP180;6856;51.460;7.158;2023-11-18T05:25:50;101052.00;;;7.60
13570;BMP180;6856;51.460;7.158;2023-11-18T05:28:24;101048.00;;;7.60
13570;BMP180;6856;51.460;7.158;2023-11-18T05:30:58;101046.00;;;7.60
13570;BMP180;6856;51.460;7.158;2023-11-18T05:33:35;101043.00;;;7.60
13570;BMP180;6856;51.460;7.158;2023-11-18T05:36:09;101039.00;;;7.60
13570;BMP180;6856;51.460;7.158;2023-11-18T05:38:43;101041.00;;;7.60
13570;BMP180;6856;51.460;7.158;2023-11-18T05:41:17;101037.00;;;7.60
13570;BMP180;6856;51.460;7.158;2023-11-18T05:44:00;101048.00;;;7.60
13570;BMP180;6856;51.460;7.158;2023-11-18T05:46:34;101049.00;;;7.70
13570;BMP180;6856;51.460;7.158;2023-11-18T05:49:13;101058.00;;;7.70
13570;BMP180;6856;51.460;7.158;2023-11-18T05:51:47;101049.00;;;7.70
13570;BMP180;6856;51.460;7.158;2023-11-18T05:54:20;101055.00;;;7.70
13570;BMP180;6856;51.460;7.158;2023-11-18T05:56:54;101056.00;;;7.70
13570;BMP180;6856;51.460;7.158;2023-11-18T05:59:31;101054.00;;;7.70
13570;BMP180;6856;51.460;7.158;2023-11-18T06:02:06;101041.00;;;7.80
13570;BMP180;6856;51.460;7.158;2023-11-18T06:04:42;100985.00;;;7.80
13570;BMP180;6856;51.460;7.158;2023-11-18T06:07:16;101060.00;;;7.80
13570;BMP180;6856;51.460;7.158;2023-11-18T06:09:51;101034.00;;;7.80
13570;BMP180;6856;51.460;7.158;2023-11-18T06:12:24;101035.00;;;7.80
13570;BMP180;6856;51.460;7.158;2023-11-18T06:14:59;101036.00;;;7.90
13570;BMP180;6856;51.460;7.158;2023-11-18T06:17:33;101039.00;;;7.90
13570;BMP180;6856;51.460;7.158;2023-11-18T06:20:10;101028.00;;;7.90
13570;BMP180;6856;51.460;7.158;2023-11-18T06:22:46;101039.00;;;7.90
13570;BMP180;6856;51.460;7.158;2023-11-18T06:25:20;101026.00;;;7.90
13570;BMP180;6856;51.460;7.158;2023-11-18T06:27:55;101019.00;;;7.90
13570;BMP180;6856;51.460;7.158;2023-11-18T06:30:31;101006.00;;;7.90
13570;BMP180;6856;51.460;7.158;2023-11-18T06:33:05;101006.00;;;7.90
13570;BMP180;6856;51.460;7.158;2023-11-18T06:35:44;101017.00;;;7.90
13570;BMP180;6856;51.460;7.158;2023-11-18T06:38:17;101025.00;;;7.90
13570;BMP180;6856;51.460;7.158;2023-11-18T06:40:51;101005.00;;;8.00
13570;BMP180;6856;51.460;7.158;2023-11-18T06:43:25;101018.00;;;8.00
13570;BMP180;6856;51.460;7.158;2023-11-18T06:46:08;101012.00;;;8.00
13570;BMP180;6856;51.460;7.158;2023-11-18T06:48:45;101018.00;;;8.00
13570;BMP180;6856;51.460;7.158;2023-11-18T06:51:21;101013.00;;;8.00
13570;BMP180;6856;51.460;7.158;2023-11-18T06:53:57;101014.00;;;8.00
13570;BMP180;6856;51.460;7.158;2023-11-18T06:56:31;101020.00;;;8.00
13570;BMP180;6856;51.460;7.158;2023-11-18T06:59:05;101021.00;;;8.00
13570;BMP180;6856;51.460;7.158;2023-11-18T07:01:41;101019.00;;;8.00
13570;BMP180;6856;51.460;7.158;2023-11-18T07:04:17;101023.00;;;8.00
13570;BMP180;6856;51.460;7.158;2023-11-18T07:06:53;101017.00;;;8.10
13570;BMP180;6856;51.460;7.158;2023-11-18T07:09:27;101019.00;;;8.00
13570;BMP180;6856;51.460;7.158;2023-11-18T07:12:01;101030.00;;;8.10
13570;BMP180;6856;51.460;7.158;2023-11-18T07:14:36;101037.00;;;8.10
13570;BMP180;6856;51.460;7.158;2023-11-18T07:17:10;101041.00;;;8.10
13570;BMP180;6856;51.460;7.158;2023-11-18T07:19:44;101048.00;;;8.10
13570;BMP180;6856;51.460;7.158;2023-11-18T07:22:19;101050.00;;;8.10
13570;BMP180;6856;51.460;7.158;2023-11-18T07:24:54;101043.00;;;8.10
13570;BMP180;6856;51.460;7.158;2023-11-18T07:27:34;101033.00;;;8.20
13570;BMP180;6856;51.460;7.158;2023-11-18T07:30:09;101039.00;;;8.20
13570;BMP180;6856;51.460;7.158;2023-11-18T07:32:43;101049.00;;;8.20
13570;BMP180;6856;51.460;7.158;2023-11-18T07:35:16;101045.00;;;8.20
13570;BMP180;6856;51.460;7.158;2023-11-18T07:37:52;101050.00;;;8.20
13570;BMP180;6856;51.460;7.158;2023-11-18T07:40:27;101043.00;;;8.20
13570;BMP180;6856;51.460;7.158;2023-11-18T07:43:01;101039.00;;;8.20
13570;BMP180;6856;51.460;7.158;2023-11-18T07:45:37;101034.00;;;8.30
13570;BMP180;6856;51.460;7.158;2023-11-18T07:48:11;101033.00;;;8.30
13570;BMP180;6856;51.460;7.158;2023-11-18T07:50:49;101004.00;;;8.30
13570;BMP180;6856;51.460;7.158;2023-11-18T07:53:25;101001.00;;;8.30
13570;BMP180;6856;51.460;7.158;2023-11-18T07:56:01;101001.00;;;8.40
13570;BMP180;6856;51.460;7.158;2023-11-18T07:58:35;101025.00;;;8.40
13570;BMP180;6856;51.460;7.158;2023-11-18T08:01:09;100972.00;;;8.40
13570;BMP180;6856;51.460;7.158;2023-11-18T08:03:43;101010.00;;;8.50
13570;BMP180;6856;51.460;7.158;2023-11-18T08:06:18;100993.00;;;8.50
13570;BMP180;6856;51.460;7.158;2023-11-18T08:08:53;100995.00;;;8.50
13570;BMP180;6856;51.460;7.158;2023-11-18T08:11:30;101003.00;;;8.50
13570;BMP180;6856;51.460;7.158;2023-11-18T08:14:03;101009.00;;;8.50
13570;BMP180;6856;51.460;7.158;2023-11-18T08:16:40;101020.00;;;8.60
13570;BMP180;6856;51.460;7.158;2023-11-18T08:19:14;101012.00;;;8.60
13570;BMP180;6856;51.460;7.158;2023-11-18T08:21:48;101027.00;;;8.60
13570;BMP180;6856;51.460;7.158;2023-11-18T08:24:23;101026.00;;;8.70
13570;BMP180;6856;51.460;7.158;2023-11-18T08:26:57;101032.00;;;8.70
13570;BMP180;6856;51.460;7.158;2023-11-18T08:29:56;101023.00;;;8.70
13570;BMP180;6856;51.460;7.158;2023-11-18T08:32:29;101020.00;;;8.80
13570;BMP180;6856;51.460;7.158;2023-11-18T08:35:04;101028.00;;;8.80
13570;BMP180;6856;51.460;7.158;2023-11-18T08:37:41;101019.00;;;8.80
13570;BMP180;6856;51.460;7.158;2023-11-18T08:40:17;101029.00;;;8.90
13570;BMP180;6856;51.460;7.158;2023-11-18T08:42:54;101008.00;;;8.90
13570;BMP180;6856;51.460;7.158;2023-11-18T08:45:30;101018.00;;;9.00
13570;BMP180;6856;51.460;7.158;2023-11-18T08:48:05;101017.00;;;9.00
13570;BMP180;6856;51.460;7.158;2023-11-18T08:50:40;101018.00;;;9.00
13570;BMP180;6856;51.460;7.158;2023-11-18T08:53:15;101006.00;;;9.00
13570;BMP180;6856;51.460;7.158;2023-11-18T08:55:52;101009.00;;;9.10
13570;BMP180;6856;51.460;7.158;2023-11-18T08:58:27;101010.00;;;9.10
13570;BMP180;6856;51.460;7.158;2023-11-18T09:01:02;101006.00;;;9.10
13570;BMP180;6856;51.460;7.158;2023-11-18T09:03:46;100989.00;;;9.10
13570;BMP180;6856;51.460;7.158;2023-11-18T09:06:25;100994.00;;;9.20
13570;BMP180;6856;51.460;7.158;2023-11-18T09:09:01;100995.00;;;9.20
13570;BMP180;6856;51.460;7.158;2023-11-18T09:11:43;101005.00;;;9.20
13570;BMP180;6856;51.460;7.158;2023-11-18T09:14:17;100955.00;;;9.20
13570;BMP180;6856;51.460;7.158;2023-11-18T09:16:52;100985.00;;;9.30
13570;BMP180;6856;51.460;7.158;2023-11-18T09:19:27;100982.00;;;9.30
13570;BMP180;6856;51.460;7.158;2023-11-18T09:22:02;100971.00;;;9.30
13570;BMP180;6856;51.460;7.158;2023-11-18T09:24:37;100964.00;;;9.40
13570;BMP180;6856;51.460;7.158;2023-11-18T09:27:37;100960.00;;;9.40
13570;BMP180;6856;51.460;7.158;2023-11-18T09:30:12;100952.00;;;9.40
13570;BMP180;6856;51.460;7.158;2023-11-18T09:32:47;100951.00;;;9.40
13570;BMP180;6856;51.460;7.158;2023-11-18T09:35:22;100960.00;;;9.50
13570;BMP180;6856;51.460;7.158;2023-11-18T09:37:56;100954.00;;;9.50
13570;BMP180;6856;51.460;7.158;2023-11-18T09:40:35;100948.00;;;9.50
13570;BMP180;6856;51.460;7.158;2023-11-18T09:43:16;100958.00;;;9.60
13570;BMP180;6856;51.460;7.158;2023-11-18T09:45:56;100953.00;;;9.50
13570;BMP180;6856;51.460;7.158;2023-11-18T09:48:30;100957.00;;;9.60
13570;BMP180;6856;51.460;7.158;2023-11-18T09:51:20;100958.00;;;9.60
13570;BMP180;6856;51.460;7.158;2023-11-18T09:53:54;100973.00;;;9.60
13570;BMP180;6856;51.460;7.158;2023-11-18T09:56:34;100985.00;;;9.60
13570;BMP180;6856;51.460;7.158;2023-11-18T09:59:32;100953.00;;;9.60
13570;BMP180;6856;51.460;7.158;2023-11-18T10:02:10;100956.00;;;9.70
13570;BMP180;6856;51.460;7.158;2023-11-18T10:04:45;100961.00;;;9.70
13570;BMP180;6856;51.460;7.158;2023-11-18T10:07:23;100956.00;;;9.70
13570;BMP180;6856;51.460;7.158;2023-11-18T10:09:59;100968.00;;;9.70
13570;BMP180;6856;51.460;7.158;2023-11-18T10:12:34;100968.00;;;9.80
13570;BMP180;6856;51.460;7.158;2023-11-18T10:15:14;100955.00;;;9.80
13570;BMP180;6856;51.460;7.158;2023-11-18T10:17:50;100934.00;;;9.80
13570;BMP180;6856;51.460;7.158;2023-11-18T10:20:44;100929.00;;;9.80
13570;BMP180;6856;51.460;7.158;2023-11-18T10:23:21;100928.00;;;9.90
13570;BMP180;6856;51.460;7.158;2023-11-18T10:25:56;100920.00;;;9.90
13570;BMP180;6856;51.460;7.158;2023-11-18T10:28:35;100908.00;;;9.90
13570;BMP180;6856;51.460;7.158;2023-11-18T10:31:19;100907.00;;;10.00
13570;BMP180;6856;51.460;7.158;2023-11-18T10:34:01;100913.00;;;10.00
13570;BMP180;6856;51.460;7.158;2023-11-18T10:36:36;100900.00;;;10.00
13570;BMP180;6856;51.460;7.158;2023-11-18T10:39:13;100884.00;;;10.00
13570;BMP180;6856;51.460;7.158;2023-11-18T10:41:48;100890.00;;;10.10
13570;BMP180;6856;51.460;7.158;2023-11-18T10:44:22;100886.00;;;10.10
13570;BMP180;6856;51.460;7.158;2023-11-18T10:46:58;100868.00;;;10.20
13570;BMP180;6856;51.460;7.158;2023-11-18T10:49:32;100865.00;;;10.20
13570;BMP180;6856;51.460;7.158;2023-11-18T10:52:10;100871.00;;;10.20
13570;BMP180;6856;51.460;7.158;2023-11-18T10:54:50;100844.00;;;10.20
13570;BMP180;6856;51.460;7.158;2023-11-18T10:57:26;100847.00;;;10.30
13570;BMP180;6856;51.460;7.158;2023-11-18T11:00:03;100839.00;;;10.30
13570;BMP180;6856;51.460;7.158;2023-11-18T11:02:47;100833.00;;;10.30
13570;BMP180;6856;51.460;7.158;2023-11-18T11:05:29;100814.00;;;10.30
13570;BMP180;6856;51.460;7.158;2023-11-18T11:08:07;100833.00;;;10.40
13570;BMP180;6856;51.460;7.158;2023-11-18T11:10:42;100816.00;;;10.40
13570;BMP180;6856;51.460;7.158;2023-11-18T11:13:17;100813.00;;;10.40
13570;BMP180;6856;51.460;7.158;2023-11-18T11:15:54;100824.00;;;10.50
13570;BMP180;6856;51.460;7.158;2023-11-18T11:18:33;100809.00;;;10.50
13570;BMP180;6856;51.460;7.158;2023-11-18T11:21:15;100817.00;;;10.50
13570;BMP180;6856;51.460;7.158;2023-11-18T11:23:57;100807.00;;;10.60
13570;BMP180;6856;51.460;7.158;2023-11-18T11:26:50;100816.00;;;10.60
13570;BMP180;6856;51.460;7.158;2023-11-18T11:29:36;100816.00;;;10.60
13570;BMP180;6856;51.460;7.158;2023-11-18T11:32:19;100822.00;;;10.70
13570;BMP180;6856;51.460;7.158;2023-11-18T11:35:06;100825.00;;;10.70
13570;BMP180;6856;51.460;7.158;2023-11-18T11:37:41;100829.00;;;10.70
13570;BMP180;6856;51.460;7.158;2023-11-18T11:40:16;100828.00;;;10.80
13570;BMP180;6856;51.460;7.158;2023-11-18T11:42:54;100831.00;;;10.70
13570;BMP180;6856;51.460;7.158;2023-11-18T11:45:29;100823.00;;;10.80
13570;BMP180;6856;51.460;7.158;2023-11-18T11:48:06;100815.00;;;10.90
13570;BMP180;6856;51.460;7.158;2023-11-18T11:51:16;100821.00;;;10.90
13570;BMP180;6856;51.460;7.158;2023-11-18T11:54:11;100817.00;;;10.90
13570;BMP180;6856;51.460;7.158;2023-11-18T11:56:50;100816.00;;;11.00
13570;BMP180;6856;51.460;7.158;2023-11-18T11:59:54;100801.00;;;11.00
13570;BMP180;6856;51.460;7.158;2023-11-18T12:02:28;100808.00;;;11.00
13570;BMP180;6856;51.460;7.158;2023-11-18T12:05:06;100804.00;;;11.00
13570;BMP180;6856;51.460;7.158;2023-11-18T12:07:42;100818.00;;;11.00
13570;BMP180;6856;51.460;7.158;2023-11-18T12:10:19;100814.00;;;11.00
13570;BMP180;6856;51.460;7.158;2023-11-18T12:13:07;100808.00;;;11.00
13570;BMP180;6856;51.460;7.158;2023-11-18T12:15:49;100812.00;;;11.00
13570;BMP180;6856;51.460;7.158;2023-11-18T12:18:27;100811.00;;;11.00
13570;BMP180;6856;51.460;7.158;2023-11-18T12:21:04;100807.00;;;11.10
13570;BMP180;6856;51.460;7.158;2023-11-18T12:24:15;100795.00;;;11.10
13570;BMP180;6856;51.460;7.158;2023-11-18T12:26:51;100757.00;;;11.10
13570;BMP180;6856;51.460;7.158;2023-11-18T12:29:32;100770.00;;;11.10
13570;BMP180;6856;51.460;7.158;2023-11-18T12:32:07;100755.00;;;11.10
13570;BMP180;6856;51.460;7.158;2023-11-18T12:34:52;100746.00;;;11.10
13570;BMP180;6856;51.460;7.158;2023-11-18T12:37:59;100735.00;;;11.10
13570;BMP180;6856;51.460;7.158;2023-11-18T12:40:56;100728.00;;;11.10
13570;BMP180;6856;51.460;7.158;2023-11-18T12:43:46;100718.00;;;11.10
13570;BMP180;6856;51.460;7.158;2023-11-18T12:46:50;100715.00;;;11.20
13570;BMP180;6856;51.460;7.158;2023-11-18T12:49:26;100703.00;;;11.10
13570;BMP180;6856;51.460;7.158;2023-11-18T12:52:00;100703.00;;;11.10
13570;BMP180;6856;51.460;7.158;2023-11-18T12:54:41;100691.00;;;11.10
13570;BMP180;6856;51.460;7.158;2023-11-18T12:57:19;100695.00;;;11.10
13570;BMP180;6856;51.460;7.158;2023-11-18T12:59:55;100692.00;;;11.10
13570;BMP180;6856;51.460;7.158;2023-11-18T13:02:28;100683.00;;;11.20
13570;BMP180;6856;51.460;7.158;2023-11-18T13:05:05;100684.00;;;11.20
13570;BMP180;6856;51.460;7.158;2023-11-18T13:07:42;100664.00;;;11.20
13570;BMP180;6856;51.460;7.158;2023-11-18T13:10:16;100652.00;;;11.20
13570;BMP180;6856;51.460;7.158;2023-11-18T13:12:51;100643.00;;;11.20
13570;BMP180;6856;51.460;7.158;2023-11-18T13:15:25;100645.00;;;11.20
13570;BMP180;6856;51.460;7.158;2023-11-18T13:18:00;100638.00;;;11.20
13570;BMP180;6856;51.460;7.158;2023-11-18T13:20:35;100618.00;;;11.20
13570;BMP180;6856;51.460;7.158;2023-11-18T13:23:09;100630.00;;;11.20
13570;BMP180;6856;51.460;7.158;2023-11-18T13:25:44;100622.00;;;11.20
13570;BMP180;6856;51.460;7.158;2023-11-18T13:28:22;100597.00;;;11.20
13570;BMP180;6856;51.460;7.158;2023-11-18T13:30:57;100587.00;;;11.20
13570;BMP180;6856;51.460;7.158;2023-11-18T13:33:30;100566.00;;;11.30
13570;BMP180;6856;51.460;7.158;2023-11-18T13:36:07;100559.00;;;11.30
13570;BMP180;6856;51.460;7.158;2023-11-18T13:38:47;100550.00;;;11.30
13570;BMP180;6856;51.460;7.158;2023-11-18T13:41:31;100544.00;;;11.30
13570;BMP180;6856;51.460;7.158;2023-11-18T13:44:07;100547.00;;;11.30
13570;BMP180;6856;51.460;7.158;2023-11-18T13:46:44;100540.00;;;11.30
13570;BMP180;6856;51.460;7.158;2023-11-18T13:49:20;100530.00;;;11.30
13570;BMP180;6856;51.460;7.158;2023-11-18T13:51:55;100523.00;;;11.30
13570;BMP180;6856;51.460;7.158;2023-11-18T13:54:29;100507.00;;;11.30
13570;BMP180;6856;51.460;7.158;2023-11-18T13:57:04;100501.00;;;11.30
13570;BMP180;6856;51.460;7.158;2023-11-18T13:59:40;100507.00;;;11.30
13570;BMP180;6856;51.460;7.158;2023-11-18T14:02:17;100491.00;;;11.30
13570;BMP180;6856;51.460;7.158;2023-11-18T14:04:52;100483.00;;;11.30
13570;BMP180;6856;51.460;7.158;2023-11-18T14:07:28;100490.00;;;11.30
13570;BMP180;6856;51.460;7.158;2023-11-18T14:10:02;100500.00;;;11.30
13570;BMP180;6856;51.460;7.158;2023-11-18T14:12:40;100493.00;;;11.30
13570;BMP180;6856;51.460;7.158;2023-11-18T14:15:32;100482.00;;;11.30
13570;BMP180;6856;51.460;7.158;2023-11-18T14:18:07;100465.00;;;11.30
13570;BMP180;6856;51.460;7.158;2023-11-18T14:20:41;100452.00;;;11.30
13570;BMP180;6856;51.460;7.158;2023-11-18T14:23:17;100447.00;;;11.30
13570;BMP180;6856;51.460;7.158;2023-11-18T14:25:51;100431.00;;;11.30
13570;BMP180;6856;51.460;7.158;2023-11-18T14:28:24;100428.00;;;11.30
13570;BMP180;6856;51.460;7.158;2023-11-18T14:31:01;100416.00;;;11.30
13570;BMP180;6856;51.460;7.158;2023-11-18T14:33:37;100411.00;;;11.30
13570;BMP180;6856;51.460;7.158;2023-11-18T14:36:11;100407.00;;;11.30
13570;BMP180;6856;51.460;7.158;2023-11-18T14:38:45;100407.00;;;11.40
13570;BMP180;6856;51.460;7.158;2023-11-18T14:41:19;100410.00;;;11.40
13570;BMP180;6856;51.460;7.158;2023-11-18T14:44:01;100413.00;;;11.40
13570;BMP180;6856;51.460;7.158;2023-11-18T14:46:38;100420.00;;;11.40
13570;BMP180;6856;51.460;7.158;2023-11-18T14:49:15;100399.00;;;11.40
13570;BMP180;6856;51.460;7.158;2023-11-18T14:51:50;100420.00;;;11.40
13570;BMP180;6856;51.460;7.158;2023-11-18T14:54:24;100382.00;;;11.40
13570;BMP180;6856;51.460;7.158;2023-11-18T14:56:58;100382.00;;;11.40
13570;BMP180;6856;51.460;7.158;2023-11-18T14:59:32;100366.00;;;11.40
13570;BMP180;6856;51.460;7.158;2023-11-18T15:02:08;100381.00;;;11.40
13570;BMP180;6856;51.460;7.158;2023-11-18T15:04:43;100376.00;;;11.40
13570;BMP180;6856;51.460;7.158;2023-11-18T15:07:17;100326.00;;;11.30
13570;BMP180;6856;51.460;7.158;2023-11-18T15:09:51;100325.00;;;11.20
13570;BMP180;6856;51.460;7.158;2023-11-18T15:12:25;100294.00;;;11.30